createdAt,value
2018-03-24T00:00:20.712Z,19.80
2018-03-24T00:02:52.126Z,18.07
2018-03-24T00:05:23.339Z,19.70
2018-03-24T00:07:54.619Z,18.93
2018-03-24T00:10:26.260Z,18.07
2018-03-24T00:12:57.467Z,18.77
2018-03-24T00:15:29.168Z,18.80
2018-03-24T00:18:00.637Z,19.50
2018-03-24T00:20:32.821Z,19.33
2018-03-24T00:23:04.262Z,18.67
2018-03-24T00:25:36.081Z,19.03
2018-03-24T00:28:07.300Z,19.33
2018-03-24T00:30:38.551Z,18.77
2018-03-24T00:33:10.845Z,19.80
2018-03-24T00:35:42.193Z,18.53
2018-03-24T00:38:13.602Z,18.53
2018-03-24T00:40:45.103Z,17.63
2018-03-24T00:43:16.379Z,17.80
2018-03-24T00:45:48.317Z,18.53
2018-03-24T00:48:20.191Z,16.47
2018-03-24T00:50:51.557Z,17.13
2018-03-24T00:53:22.918Z,17.10
2018-03-24T00:55:54.922Z,17.03
2018-03-24T00:58:26.156Z,16.87
2018-03-24T01:00:57.367Z,16.83
2018-03-24T01:03:29.848Z,16.90
2018-03-24T01:06:01.584Z,15.83
2018-03-24T01:08:32.960Z,16.40
2018-03-24T01:11:04.295Z,14.20
2018-03-24T01:13:35.480Z,15.40
2018-03-24T01:16:07.273Z,14.03
2018-03-24T01:18:39.372Z,14.37
2018-03-24T01:21:11.849Z,15.73
2018-03-24T01:23:43.058Z,15.03
2018-03-24T01:26:15.002Z,16.03
2018-03-24T01:28:46.947Z,16.20
2018-03-24T01:31:18.208Z,14.87
2018-03-24T01:33:49.492Z,15.07
2018-03-24T01:36:20.702Z,15.93
2018-03-24T01:38:52.904Z,14.13
2018-03-24T01:41:24.109Z,14.30
2018-03-24T01:43:56.101Z,14.57
2018-03-24T01:46:27.315Z,14.57
2018-03-24T01:48:59.267Z,14.60
2018-03-24T01:51:30.485Z,14.30
2018-03-24T01:54:01.695Z,13.53
2018-03-24T01:56:32.888Z,14.63
2018-03-24T01:59:06.163Z,13.50
2018-03-24T02:01:37.394Z,14.33
2018-03-24T02:04:08.952Z,13.50
2018-03-24T02:06:40.173Z,13.27
2018-03-24T02:09:11.413Z,13.37
2018-03-24T02:11:43.357Z,13.50
2018-03-24T02:14:14.568Z,13.47
2018-03-24T02:16:47.000Z,13.20
2018-03-24T02:19:19.046Z,13.27
2018-03-24T02:21:50.622Z,13.20
2018-03-24T02:24:21.817Z,13.33
2018-03-24T02:26:53.074Z,12.63
2018-03-24T02:29:24.293Z,13.80
2018-03-24T02:31:55.512Z,14.07
2018-03-24T02:34:26.777Z,12.20
2018-03-24T02:36:58.042Z,14.50
2018-03-24T02:39:29.383Z,13.30
2018-03-24T02:42:00.640Z,14.37
2018-03-24T02:44:32.652Z,14.37
2018-03-24T02:47:03.932Z,14.77
2018-03-24T02:49:35.141Z,13.70
2018-03-24T02:52:06.337Z,13.50
2018-03-24T02:54:37.554Z,14.10
2018-03-24T02:57:09.911Z,13.30
2018-03-24T02:59:41.125Z,13.53
2018-03-24T03:02:12.340Z,13.63
2018-03-24T03:04:43.531Z,13.40
2018-03-24T03:07:14.751Z,12.93
2018-03-24T03:09:45.937Z,14.10
2018-03-24T03:12:17.152Z,13.73
2018-03-24T03:14:48.332Z,14.47
2018-03-24T03:17:20.312Z,13.77
2018-03-24T03:19:52.339Z,13.93
2018-03-24T03:22:23.592Z,13.97
2018-03-24T03:24:54.832Z,14.10
2018-03-24T03:27:26.056Z,14.63
2018-03-24T03:29:57.298Z,12.77
2018-03-24T03:32:30.059Z,12.90
2018-03-24T03:35:01.304Z,12.67
2018-03-24T03:37:32.540Z,12.70
2018-03-24T03:40:03.852Z,13.33
2018-03-24T03:42:35.056Z,12.03
2018-03-24T03:45:06.300Z,13.80
2018-03-24T03:47:37.539Z,12.87
2018-03-24T03:50:08.788Z,12.53
2018-03-24T03:52:40.040Z,13.57
2018-03-24T03:55:11.268Z,12.67
2018-03-24T03:57:42.720Z,13.23
2018-03-24T04:00:13.960Z,14.30
2018-03-24T04:02:45.529Z,15.13
2018-03-24T04:05:16.729Z,15.10
2018-03-24T04:07:47.977Z,14.90
2018-03-24T04:10:19.220Z,14.67
2018-03-24T04:12:50.688Z,12.83
2018-03-24T04:15:21.895Z,14.07
2018-03-24T04:17:53.339Z,13.87
2018-03-24T04:20:24.672Z,13.80
2018-03-24T04:22:55.913Z,14.20
2018-03-24T04:25:27.916Z,14.03
2018-03-24T04:27:59.099Z,14.10
2018-03-24T04:30:30.400Z,13.87
2018-03-24T04:33:01.596Z,14.90
2018-03-24T04:35:32.838Z,14.67
2018-03-24T04:38:04.028Z,13.73
2018-03-24T04:40:35.582Z,15.00
2018-03-24T04:43:06.787Z,13.43
2018-03-24T04:45:37.995Z,14.07
2018-03-24T04:48:09.444Z,13.60
2018-03-24T04:50:40.643Z,15.47
2018-03-24T04:53:12.622Z,14.87
2018-03-24T04:55:44.552Z,15.13
2018-03-24T04:58:15.799Z,14.93
2018-03-24T05:00:47.821Z,14.50
2018-03-24T05:03:19.168Z,15.27
2018-03-24T05:05:50.347Z,14.77
2018-03-24T05:08:21.565Z,15.10
2018-03-24T05:10:52.760Z,15.00
2018-03-24T05:13:23.992Z,14.70
2018-03-24T05:15:55.944Z,15.60
2018-03-24T05:18:27.213Z,15.40
2018-03-24T05:20:58.502Z,16.07
2018-03-24T05:23:29.956Z,15.03
2018-03-24T05:26:01.155Z,15.77
2018-03-24T05:28:32.396Z,14.33
2018-03-24T05:31:03.591Z,16.17
2018-03-24T05:33:34.864Z,15.40
2018-03-24T05:36:06.784Z,15.10
2018-03-24T05:38:38.036Z,15.47
2018-03-24T05:41:09.264Z,15.37
2018-03-24T05:43:40.713Z,15.40
2018-03-24T05:46:11.882Z,16.20
2018-03-24T05:48:43.183Z,15.83
2018-03-24T05:51:15.092Z,15.53
2018-03-24T05:53:46.503Z,14.93
2018-03-24T05:56:17.688Z,14.70
2018-03-24T05:58:48.993Z,15.77
2018-03-24T06:01:20.258Z,15.97
2018-03-24T06:03:51.519Z,16.50
2018-03-24T06:06:22.781Z,15.17
2018-03-24T06:08:54.765Z,15.43
2018-03-24T06:11:26.689Z,15.20
2018-03-24T06:13:58.100Z,16.27
2018-03-24T06:16:29.292Z,16.20
2018-03-24T06:19:00.817Z,15.70
2018-03-24T06:21:32.045Z,15.03
2018-03-24T06:24:03.260Z,16.03
2018-03-24T06:26:34.445Z,15.03
2018-03-24T06:29:06.005Z,15.83
2018-03-24T06:31:39.258Z,14.60
2018-03-24T06:34:10.546Z,15.83
2018-03-24T06:36:42.651Z,16.53
2018-03-24T06:39:14.627Z,15.23
2018-03-24T06:41:45.928Z,16.13
2018-03-24T06:44:17.121Z,14.97
2018-03-24T06:46:48.415Z,15.20
2018-03-24T06:49:19.614Z,15.40
2018-03-24T06:51:50.868Z,15.37
2018-03-24T06:54:22.103Z,15.37
2018-03-24T06:56:53.327Z,15.23
2018-03-24T06:59:25.292Z,14.57
2018-03-24T07:01:56.604Z,14.23
2018-03-24T07:04:27.826Z,14.23
2018-03-24T07:06:59.068Z,14.43
2018-03-24T07:09:30.263Z,14.90
2018-03-24T07:12:01.659Z,16.83
2018-03-24T07:14:32.840Z,15.60
2018-03-24T07:17:04.112Z,15.57
2018-03-24T07:19:36.021Z,17.33
2018-03-24T07:22:08.120Z,15.43
2018-03-24T07:24:40.132Z,15.90
2018-03-24T07:27:11.536Z,16.50
2018-03-24T07:29:42.785Z,15.60
2018-03-24T07:32:14.809Z,15.90
2018-03-24T07:34:48.958Z,16.60
2018-03-24T07:37:21.250Z,15.40
2018-03-24T07:39:52.901Z,14.87
2018-03-24T07:42:24.302Z,15.63
2018-03-24T07:44:56.234Z,15.40
2018-03-24T07:47:27.516Z,15.80
2018-03-24T07:49:59.552Z,14.90
2018-03-24T07:52:32.273Z,14.67
2018-03-24T07:55:04.396Z,14.27
2018-03-24T07:57:35.668Z,14.87
2018-03-24T08:00:07.665Z,14.60
2018-03-24T08:02:38.901Z,15.17
2018-03-24T08:05:10.252Z,13.90
2018-03-24T08:07:41.723Z,15.17
2018-03-24T08:10:12.901Z,14.30
2018-03-24T08:12:44.912Z,13.80
2018-03-24T08:15:16.167Z,13.37
2018-03-24T08:17:47.717Z,13.63
2018-03-24T08:20:18.909Z,12.83
2018-03-24T08:22:50.384Z,13.77
2018-03-24T08:25:21.654Z,12.87
2018-03-24T08:27:52.865Z,13.53
2018-03-24T08:30:24.872Z,13.57
2018-03-24T08:32:56.439Z,12.93
2018-03-24T08:35:27.658Z,14.00
2018-03-24T08:37:58.927Z,13.97
2018-03-24T08:40:30.102Z,13.63
2018-03-24T08:43:02.153Z,12.73
2018-03-24T08:45:33.395Z,12.73
2018-03-24T08:48:04.688Z,13.80
2018-03-24T08:50:35.930Z,14.37
2018-03-24T08:53:07.514Z,13.63
2018-03-24T08:55:38.732Z,12.77
2018-03-24T08:58:09.974Z,13.20
2018-03-24T09:00:41.224Z,13.13
2018-03-24T09:03:12.494Z,13.90
2018-03-24T09:05:43.714Z,14.30
2018-03-24T09:08:14.969Z,14.33
2018-03-24T09:10:46.187Z,13.43
2018-03-24T09:13:17.503Z,13.60
2018-03-24T09:15:48.737Z,13.20
2018-03-24T09:18:19.940Z,14.27
2018-03-24T09:20:51.191Z,13.80
2018-03-24T09:23:22.524Z,13.43
2018-03-24T09:25:53.775Z,13.90
2018-03-24T09:28:25.356Z,14.90
2018-03-24T09:30:56.576Z,13.67
2018-03-24T09:33:28.128Z,13.17
2018-03-24T09:35:59.404Z,14.40
2018-03-24T09:38:30.647Z,14.63
2018-03-24T09:41:01.857Z,14.67
2018-03-24T09:43:33.142Z,13.67
2018-03-24T09:46:04.337Z,15.10
2018-03-24T09:48:35.623Z,15.17
2018-03-24T09:51:06.917Z,14.27
2018-03-24T09:53:38.135Z,14.67
2018-03-24T09:56:09.572Z,16.27
2018-03-24T09:58:40.878Z,16.90
2018-03-24T10:01:12.856Z,16.27
2018-03-24T10:03:44.115Z,17.93
2018-03-24T10:06:15.295Z,19.73
2018-03-24T10:08:47.360Z,16.83
2018-03-24T10:11:19.331Z,16.67
2018-03-24T10:13:50.550Z,17.00
2018-03-24T10:16:21.924Z,18.87
2018-03-24T10:18:53.215Z,19.73
2018-03-24T10:24:47.493Z,16.27
2018-03-24T10:27:18.754Z,16.97
2018-03-24T10:29:50.042Z,16.93
2018-03-24T10:32:21.269Z,16.57
2018-03-24T10:34:59.367Z,17.10
2018-03-24T10:37:30.571Z,17.47
2018-03-24T10:40:01.837Z,16.17
2018-03-24T10:42:33.376Z,17.13
2018-03-24T10:45:04.611Z,16.40
2018-03-24T10:47:35.855Z,16.60
2018-03-24T10:50:07.148Z,17.40
2018-03-24T10:52:40.773Z,16.23
2018-03-24T10:55:16.354Z,16.67
2018-03-24T10:57:48.430Z,17.83
2018-03-24T11:00:19.738Z,18.27
2018-03-24T11:02:50.945Z,17.63
2018-03-24T11:05:22.164Z,17.17
2018-03-24T11:07:53.698Z,17.53
2018-03-24T11:10:24.929Z,16.13
2018-03-24T11:12:56.156Z,16.80
2018-03-24T11:15:27.599Z,15.47
2018-03-24T11:17:59.617Z,14.77
2018-03-24T11:20:30.848Z,13.27
2018-03-24T11:23:02.074Z,15.40
2018-03-24T11:25:33.366Z,14.47
2018-03-24T11:28:04.567Z,15.37
2018-03-24T11:30:35.776Z,15.97
2018-03-24T11:33:07.125Z,14.30
2018-03-24T11:35:38.379Z,14.70
2018-03-24T11:38:10.312Z,14.57
2018-03-24T11:40:41.647Z,13.67
2018-03-24T11:43:12.843Z,14.87
2018-03-24T11:45:44.804Z,16.37
2018-03-24T11:48:16.187Z,15.50
2018-03-24T11:50:47.416Z,15.60
2018-03-24T11:53:18.640Z,16.20
2018-03-24T11:55:50.559Z,15.37
2018-03-24T11:58:21.974Z,14.60
2018-03-24T12:00:53.160Z,15.57
2018-03-24T12:03:25.157Z,15.90
2018-03-24T12:05:57.216Z,16.53
2018-03-24T12:08:28.491Z,15.47
2018-03-24T12:10:59.736Z,16.00
2018-03-24T12:13:30.944Z,16.50
2018-03-24T12:16:02.285Z,14.90
2018-03-24T12:18:33.521Z,14.93
2018-03-24T12:21:05.502Z,14.23
2018-03-24T12:23:37.431Z,14.77
2018-03-24T12:26:09.041Z,15.00
2018-03-24T12:28:40.235Z,14.73
2018-03-24T12:31:12.341Z,14.60
2018-03-24T12:33:43.556Z,15.20
2018-03-24T12:36:14.830Z,15.33
2018-03-24T12:38:46.037Z,15.10
2018-03-24T12:41:18.085Z,14.80
2018-03-24T12:43:50.164Z,13.57
2018-03-24T12:46:22.265Z,14.97
2018-03-24T12:48:53.535Z,14.50
2018-03-24T12:51:24.742Z,16.13
2018-03-24T12:53:56.025Z,15.17
2018-03-24T12:56:27.375Z,15.33
2018-03-24T12:58:58.620Z,15.63
2018-03-24T13:01:29.848Z,16.97
2018-03-24T13:04:01.156Z,15.13
2018-03-24T13:06:32.495Z,15.43
2018-03-24T13:09:04.503Z,15.80
2018-03-24T13:11:35.732Z,15.93
2018-03-24T13:14:07.290Z,15.17
2018-03-24T13:16:38.516Z,14.37
2018-03-24T13:19:10.785Z,14.20
2018-03-24T13:21:43.339Z,14.43
2018-03-24T13:24:14.611Z,14.60
2018-03-24T13:26:45.960Z,15.03
2018-03-24T13:29:17.166Z,15.40
2018-03-24T13:31:49.181Z,14.63
2018-03-24T13:34:20.393Z,15.90
2018-03-24T13:36:52.580Z,15.37
2018-03-24T13:39:24.030Z,15.63
2018-03-24T13:41:55.327Z,15.97
2018-03-24T13:44:26.582Z,15.33
2018-03-24T13:46:58.622Z,15.73
2018-03-24T13:49:29.874Z,15.80
2018-03-24T13:52:01.042Z,15.93
2018-03-24T13:54:33.047Z,15.80
2018-03-24T13:57:04.336Z,16.37
2018-03-24T13:59:35.842Z,15.87
2018-03-24T14:02:07.139Z,15.50
2018-03-24T14:04:38.409Z,16.57
2018-03-24T14:07:09.762Z,14.70
2018-03-24T14:09:41.062Z,15.37
2018-03-24T14:12:12.274Z,15.97
2018-03-24T14:14:43.533Z,15.87
2018-03-24T14:17:14.730Z,15.67
2018-03-24T14:19:46.029Z,15.90
2018-03-24T14:22:17.263Z,15.60
2018-03-24T14:24:48.602Z,16.37
2018-03-24T14:27:19.860Z,15.50
2018-03-24T14:29:51.096Z,15.93
2018-03-24T14:32:22.328Z,16.67
2018-03-24T14:34:53.671Z,16.57
2018-03-24T14:37:25.154Z,16.20
2018-03-24T14:39:56.348Z,16.70
2018-03-24T14:42:27.647Z,15.60
2018-03-24T14:44:59.017Z,16.90
2018-03-24T14:47:45.953Z,17.63
2018-03-24T14:50:17.535Z,17.43
2018-03-24T14:52:48.712Z,16.17
2018-03-24T14:55:20.128Z,16.07
2018-03-24T14:57:51.648Z,17.20
2018-03-24T15:00:22.840Z,17.70
2018-03-24T15:02:54.893Z,16.67
2018-03-24T15:05:26.100Z,18.20
2018-03-24T15:07:57.388Z,18.07
2018-03-24T15:10:28.651Z,17.17
2018-03-24T15:12:59.966Z,18.53
2018-03-24T15:15:31.199Z,19.40
2018-03-24T15:18:02.856Z,19.27
2018-03-24T15:20:34.087Z,18.67
2018-03-24T15:23:05.355Z,18.53
2018-03-24T15:25:36.621Z,18.90
2018-03-24T15:28:08.696Z,19.17
2018-03-24T15:30:53.036Z,20.60
2018-03-24T15:33:37.495Z,23.00
2018-03-24T15:36:21.948Z,20.67
2018-03-24T15:38:54.000Z,24.37
2018-03-24T15:41:25.280Z,21.57
2018-03-24T15:43:57.321Z,21.83
2018-03-24T15:46:29.337Z,21.90
2018-03-24T15:49:00.610Z,22.53
2018-03-24T15:51:32.752Z,21.43
2018-03-24T15:54:03.985Z,21.13
2018-03-24T15:56:35.905Z,20.67
2018-03-24T15:59:07.209Z,23.20
2018-03-24T16:01:38.493Z,22.87
2018-03-24T16:04:10.009Z,22.27
2018-03-24T16:06:41.413Z,21.93
2018-03-24T16:09:12.956Z,22.63
2018-03-24T16:11:44.948Z,24.87
2018-03-24T16:14:16.199Z,22.70
2018-03-24T16:16:47.449Z,22.37
2018-03-24T16:19:18.991Z,22.53
2018-03-24T16:21:50.212Z,22.63
2018-03-24T16:24:21.792Z,23.40
2018-03-24T16:26:53.007Z,23.77
2018-03-24T16:29:25.043Z,22.80
2018-03-24T16:31:56.328Z,24.17
2018-03-24T16:34:27.598Z,23.17
2018-03-24T16:37:13.784Z,24.33
2018-03-24T16:39:44.992Z,22.93
2018-03-24T16:42:16.973Z,23.37
2018-03-24T16:44:48.221Z,22.03
2018-03-24T16:47:19.454Z,23.50
2018-03-24T16:49:51.489Z,21.77
2018-03-24T16:52:22.672Z,22.73
2018-03-24T16:54:54.018Z,23.33
2018-03-24T16:57:25.249Z,23.17
2018-03-24T16:59:56.553Z,24.47
2018-03-24T17:02:27.760Z,21.83
2018-03-24T17:04:59.028Z,23.30
2018-03-24T17:07:30.211Z,23.73
2018-03-24T17:10:01.604Z,22.33
2018-03-24T17:12:32.828Z,25.40
2018-03-24T17:15:04.069Z,23.87
2018-03-24T17:17:35.281Z,23.57
2018-03-24T17:20:06.780Z,23.83
2018-03-24T17:22:37.968Z,24.57
2018-03-24T17:25:09.499Z,24.03
2018-03-24T17:27:40.730Z,24.43
2018-03-24T17:30:12.031Z,24.37
2018-03-24T17:32:44.204Z,24.37
2018-03-24T17:35:16.139Z,24.60
2018-03-24T17:37:47.333Z,25.00
2018-03-24T17:40:18.561Z,25.77
2018-03-24T17:42:49.829Z,26.20
2018-03-24T17:45:21.091Z,26.77
2018-03-24T17:47:52.316Z,25.60
2018-03-24T17:50:23.583Z,27.63
2018-03-24T17:52:54.774Z,27.33
2018-03-24T17:55:26.719Z,26.87
2018-03-24T17:57:57.939Z,28.00
2018-03-24T18:00:29.145Z,27.57
2018-03-24T18:03:00.355Z,27.90
2018-03-24T18:05:32.324Z,27.90
2018-03-24T18:08:04.286Z,28.30
2018-03-24T18:10:36.309Z,28.17
2018-03-24T18:13:07.514Z,29.70
2018-03-24T18:15:39.015Z,29.53
2018-03-24T18:18:10.231Z,31.37
2018-03-24T18:20:41.455Z,30.83
2018-03-24T18:23:12.648Z,30.97
2018-03-24T18:25:44.604Z,32.23
2018-03-24T18:28:15.816Z,32.27
2018-03-24T18:30:47.104Z,33.80
2018-03-24T18:33:19.062Z,34.23
2018-03-24T18:35:51.079Z,35.43
2018-03-24T18:38:22.267Z,34.87
2018-03-24T18:40:53.512Z,35.43
2018-03-24T18:43:25.480Z,36.67
2018-03-24T18:45:57.482Z,36.07
2018-03-24T18:48:28.707Z,36.00
2018-03-24T18:51:00.719Z,36.87
2018-03-24T18:53:31.937Z,36.93
2018-03-24T18:56:03.177Z,36.17
2018-03-24T18:58:34.417Z,37.13
2018-03-24T19:01:05.993Z,37.67
2018-03-24T19:03:37.192Z,36.70
2018-03-24T19:06:09.207Z,37.00
2018-03-24T19:08:40.376Z,36.40
2018-03-24T19:11:11.879Z,35.60
2018-03-24T19:13:43.116Z,35.07
2018-03-24T19:16:14.497Z,34.63
2018-03-24T19:18:45.692Z,34.07
2018-03-24T19:21:17.875Z,34.80
2018-03-24T19:23:49.093Z,35.87
2018-03-24T19:26:21.077Z,35.43
2018-03-24T19:28:52.271Z,36.10
2018-03-24T19:31:23.464Z,34.10
2018-03-24T19:33:54.655Z,33.03
2018-03-24T19:36:25.869Z,35.67
2018-03-24T19:38:57.064Z,32.93
2018-03-24T19:41:28.357Z,35.27
2018-03-24T19:43:59.608Z,35.00
2018-03-24T19:46:30.867Z,36.07
2018-03-24T19:49:02.152Z,36.07
2018-03-24T19:51:33.544Z,34.60
2018-03-24T19:54:04.812Z,34.87
2018-03-24T19:56:35.995Z,33.83
2018-03-24T19:59:07.257Z,33.13
2018-03-24T20:01:38.500Z,32.43
2018-03-24T20:04:09.996Z,32.13
2018-03-24T20:06:42.033Z,33.83
2018-03-24T20:09:13.259Z,32.43
2018-03-24T20:11:44.543Z,33.60
2018-03-24T20:14:15.804Z,32.40
2018-03-24T20:16:47.047Z,32.07
2018-03-24T20:19:18.298Z,31.57
2018-03-24T20:21:49.532Z,33.07
2018-03-24T20:24:20.959Z,32.00
2018-03-24T20:26:52.252Z,33.50
2018-03-24T20:29:24.340Z,31.77
2018-03-24T20:31:55.592Z,32.43
2018-03-24T20:34:26.843Z,31.40
2018-03-24T20:36:58.032Z,31.60
2018-03-24T20:39:29.292Z,31.87
2018-03-24T20:42:01.591Z,32.27
2018-03-24T20:44:32.817Z,29.70
2018-03-24T20:47:04.857Z,31.90
2018-03-24T20:49:36.861Z,31.50
2018-03-24T20:52:08.196Z,32.00
2018-03-24T20:54:39.404Z,32.37
2018-03-24T20:57:10.597Z,33.13
2018-03-24T20:59:41.864Z,33.63
2018-03-24T21:02:13.228Z,33.80
2018-03-24T21:04:44.572Z,32.73
2018-03-24T21:07:15.810Z,32.73
2018-03-24T21:09:47.029Z,33.23
2018-03-24T21:12:18.343Z,33.17
2018-03-24T21:14:50.281Z,32.73
2018-03-24T21:17:21.491Z,31.97
2018-03-24T21:19:52.760Z,31.83
2018-03-24T21:22:24.005Z,33.00
2018-03-24T21:24:55.194Z,33.07
2018-03-24T21:27:26.427Z,32.47
2018-03-24T21:29:58.380Z,32.77
2018-03-24T21:32:30.483Z,33.27
2018-03-24T21:35:01.746Z,33.23
2018-03-24T21:37:33.033Z,32.53
2018-03-24T21:40:05.020Z,32.93
2018-03-24T21:42:36.915Z,33.57
2018-03-24T21:45:08.229Z,33.37
2018-03-24T21:47:39.475Z,34.00
2018-03-24T21:50:10.844Z,32.23
2018-03-24T21:52:43.853Z,32.60
2018-03-24T21:55:30.788Z,31.13
2018-03-24T21:58:02.843Z,31.30
2018-03-24T22:00:34.793Z,31.10
2018-03-24T22:03:06.088Z,31.33
2018-03-24T22:05:37.384Z,31.63
2018-03-24T22:08:09.430Z,31.97
2018-03-24T22:10:40.692Z,33.17
2018-03-24T22:13:12.768Z,32.57
2018-03-24T22:15:44.776Z,32.10
2018-03-24T22:18:16.011Z,32.17
2018-03-24T22:20:47.276Z,32.03
2018-03-24T22:23:18.582Z,30.60
2018-03-24T22:25:49.846Z,30.53
2018-03-24T22:28:21.099Z,29.00
2018-03-24T22:30:52.475Z,28.60
2018-03-24T22:33:23.887Z,29.27
2018-03-24T22:35:55.149Z,29.90
2018-03-24T22:38:26.352Z,27.13
2018-03-24T22:40:57.658Z,30.00
2018-03-24T22:43:28.951Z,29.33
2018-03-24T22:46:00.405Z,28.50
2018-03-24T22:48:31.605Z,29.23
2018-03-24T22:51:03.066Z,28.97
2018-03-24T22:53:35.092Z,27.93
2018-03-24T22:56:06.348Z,27.23
2018-03-24T22:58:37.552Z,30.10
2018-03-24T23:01:08.841Z,30.83
2018-03-24T23:03:40.097Z,30.23
2018-03-24T23:06:11.335Z,31.20
2018-03-24T23:08:42.576Z,30.83
2018-03-24T23:11:14.001Z,30.40
2018-03-24T23:13:45.325Z,29.90
2018-03-24T23:16:17.354Z,29.37
2018-03-24T23:18:48.595Z,30.10
2018-03-24T23:21:19.812Z,30.80
2018-03-24T23:23:51.120Z,30.47
2018-03-24T23:26:22.363Z,29.97
2018-03-24T23:28:53.944Z,30.23
2018-03-24T23:31:25.282Z,29.77
2018-03-24T23:33:56.523Z,30.60
2018-03-24T23:36:27.981Z,29.73
2018-03-24T23:38:59.235Z,31.40
2018-03-24T23:41:30.560Z,30.47
2018-03-24T23:44:01.806Z,30.23
2018-03-24T23:46:33.100Z,30.73
2018-03-24T23:49:05.126Z,31.20
2018-03-24T23:51:36.335Z,31.00
2018-03-24T23:54:08.368Z,31.03
2018-03-24T23:56:39.617Z,31.57
2018-03-24T23:59:10.839Z,31.43
